Kezdőlap
METAR-TAF:

METAR-TAF

Repülőterek :

légibázis

Niederstetten, Németország

földrajzi szélesség: 49-24N, földrajzi hosszúság: 009-58E, magasság: 468 m

Jelenlegi meteorológiai megfigyelések

A jelentés 28 perccel ezelõtt készült, 19:20 UTC
Nyugati szél 20 kt
Hőmérséklet 10°C
Páratartalom 43%
Légköri nyomás 1024 hPa
Látótávolság 10 km, vagy több
Borult 3000 lábon

METAR: ETHN 221920Z 26020KT 9999 OVC030 10/M02 Q1024 BLU

Idő: 20:48 (19:48 UTC)


TAF: hiányzik

Meteorológiai megfigyelések és előrejelzések több, mint 4000 repülőtéren (METAR és TAF jelentéseket).

A térképen piros és sárga pontok jelzik az elérhető meteorológiai állomásokat.

Mozgassa az egeret a pont fölött, hogy megjelenjen az állomás neve.

Azután kattintson az időjárási megfigyelések és előrejelzések megtekintéséhez.

A térkép megváltoztatása: kattintson a fekete keresztel jelölt zöld gombra ráközelítéshez, a vonallal jelölt zöld gombra távolításhoz, vagy a zöld nyilakra a szomszédos térképek eléréséhez.


METAR-TAF: